sensor_id;sensor_type;location;lat;lon;timestamp;pressure;altitude;pressure_sealevel;temperature;humidity
13974;BME280;7060;43.770;4.008;2024-01-30T00:01:42;102876.00;;;10.47;74.45
13974;BME280;7060;43.770;4.008;2024-01-30T00:04:10;102877.88;;;10.45;74.68
13974;BME280;7060;43.770;4.008;2024-01-30T00:06:38;102877.03;;;10.45;75.23
13974;BME280;7060;43.770;4.008;2024-01-30T00:09:07;102868.75;;;10.49;75.25
13974;BME280;7060;43.770;4.008;2024-01-30T00:11:35;102871.44;;;10.49;74.72
13974;BME280;7060;43.770;4.008;2024-01-30T00:14:04;102879.44;;;10.49;74.62
13974;BME280;7060;43.770;4.008;2024-01-30T00:16:32;102877.63;;;10.50;74.82
13974;BME280;7060;43.770;4.008;2024-01-30T00:19:02;102866.94;;;10.50;74.65
13974;BME280;7060;43.770;4.008;2024-01-30T00:21:30;102877.72;;;10.48;74.75
13974;BME280;7060;43.770;4.008;2024-01-30T00:23:58;102869.78;;;10.47;74.53
13974;BME280;7060;43.770;4.008;2024-01-30T00:26:26;102869.09;;;10.43;74.55
13974;BME280;7060;43.770;4.008;2024-01-30T00:28:54;102864.69;;;10.42;74.48
13974;BME280;7060;43.770;4.008;2024-01-30T00:31:23;102866.50;;;10.42;74.51
13974;BME280;7060;43.770;4.008;2024-01-30T00:33:51;102873.94;;;10.37;74.61
13974;BME280;7060;43.770;4.008;2024-01-30T00:36:20;102866.88;;;10.36;74.42
13974;BME280;7060;43.770;4.008;2024-01-30T00:38:48;102871.34;;;10.35;74.50
13974;BME280;7060;43.770;4.008;2024-01-30T00:41:17;102873.59;;;10.27;74.42
13974;BME280;7060;43.770;4.008;2024-01-30T00:43:46;102868.72;;;10.18;74.61
13974;BME280;7060;43.770;4.008;2024-01-30T00:46:14;102864.56;;;10.12;74.25
13974;BME280;7060;43.770;4.008;2024-01-30T00:48:42;102864.69;;;10.11;74.70
13974;BME280;7060;43.770;4.008;2024-01-30T00:51:10;102861.06;;;10.12;74.20
13974;BME280;7060;43.770;4.008;2024-01-30T00:53:40;102853.91;;;10.12;74.36
13974;BME280;7060;43.770;4.008;2024-01-30T00:56:08;102861.06;;;10.12;73.96
13974;BME280;7060;43.770;4.008;2024-01-30T00:58:36;102856.69;;;10.11;74.55
13974;BME280;7060;43.770;4.008;2024-01-30T01:01:04;102849.69;;;10.08;74.36
13974;BME280;7060;43.770;4.008;2024-01-30T01:03:34;102864.78;;;10.09;74.69
13974;BME280;7060;43.770;4.008;2024-01-30T01:06:03;102862.97;;;10.10;74.20
13974;BME280;7060;43.770;4.008;2024-01-30T01:08:31;102857.63;;;10.10;74.54
13974;BME280;7060;43.770;4.008;2024-01-30T01:11:00;102858.56;;;10.09;74.73
13974;BME280;7060;43.770;4.008;2024-01-30T01:13:30;102843.06;;;10.00;74.08
13974;BME280;7060;43.770;4.008;2024-01-30T01:15:58;102862.50;;;10.02;74.56
13974;BME280;7060;43.770;4.008;2024-01-30T01:18:26;102859.22;;;9.97;74.48
13974;BME280;7060;43.770;4.008;2024-01-30T01:20:55;102861.13;;;9.95;74.74
13974;BME280;7060;43.770;4.008;2024-01-30T01:23:23;102867.41;;;9.94;74.41
13974;BME280;7060;43.770;4.008;2024-01-30T01:25:51;102862.84;;;9.96;74.46
13974;BME280;7060;43.770;4.008;2024-01-30T01:28:20;102828.38;;;9.75;74.39
13974;BME280;7060;43.770;4.008;2024-01-30T01:30:48;102854.13;;;9.92;74.75
13974;BME280;7060;43.770;4.008;2024-01-30T01:33:17;102868.50;;;9.90;74.26
13974;BME280;7060;43.770;4.008;2024-01-30T01:35:45;102859.63;;;9.89;74.63
13974;BME280;7060;43.770;4.008;2024-01-30T01:38:13;102860.41;;;9.91;74.52
13974;BME280;7060;43.770;4.008;2024-01-30T01:40:41;102862.22;;;9.91;75.19
13974;BME280;7060;43.770;4.008;2024-01-30T01:43:10;102854.38;;;9.88;75.18
13974;BME280;7060;43.770;4.008;2024-01-30T01:45:40;102853.44;;;9.89;75.05
13974;BME280;7060;43.770;4.008;2024-01-30T01:48:08;102856.09;;;9.89;75.29
13974;BME280;7060;43.770;4.008;2024-01-30T01:50:38;102852.34;;;9.93;74.68
13974;BME280;7060;43.770;4.008;2024-01-30T01:53:07;102825.66;;;9.77;74.64
13974;BME280;7060;43.770;4.008;2024-01-30T01:55:36;102850.53;;;9.93;75.38
13974;BME280;7060;43.770;4.008;2024-01-30T01:58:05;102855.69;;;9.96;75.26
13974;BME280;7060;43.770;4.008;2024-01-30T02:00:33;102849.41;;;9.97;75.14
13974;BME280;7060;43.770;4.008;2024-01-30T02:03:04;102843.13;;;9.98;75.06
13974;BME280;7060;43.770;4.008;2024-01-30T02:05:34;102846.84;;;9.96;75.28
13974;BME280;7060;43.770;4.008;2024-01-30T02:08:02;102845.97;;;9.95;74.79
13974;BME280;7060;43.770;4.008;2024-01-30T02:10:31;102841.34;;;9.99;74.89
13974;BME280;7060;43.770;4.008;2024-01-30T02:12:59;102836.84;;;9.99;75.11
13974;BME280;7060;43.770;4.008;2024-01-30T02:15:27;102838.50;;;10.02;74.92
13974;BME280;7060;43.770;4.008;2024-01-30T02:17:56;102846.41;;;10.03;75.00
13974;BME280;7060;43.770;4.008;2024-01-30T02:20:27;102841.00;;;10.05;74.75
13974;BME280;7060;43.770;4.008;2024-01-30T02:22:59;102849.94;;;10.04;75.05
13974;BME280;7060;43.770;4.008;2024-01-30T02:25:35;102836.50;;;9.90;74.84
13974;BME280;7060;43.770;4.008;2024-01-30T02:28:04;102852.25;;;9.94;74.78
13974;BME280;7060;43.770;4.008;2024-01-30T02:30:32;102847.16;;;9.90;75.14
13974;BME280;7060;43.770;4.008;2024-01-30T02:33:00;102848.09;;;9.89;74.97
13974;BME280;7060;43.770;4.008;2024-01-30T02:35:28;102847.31;;;9.87;75.03
13974;BME280;7060;43.770;4.008;2024-01-30T02:37:58;102843.72;;;9.88;75.19
13974;BME280;7060;43.770;4.008;2024-01-30T02:40:26;102844.50;;;9.90;74.84
13974;BME280;7060;43.770;4.008;2024-01-30T02:42:54;102845.09;;;9.95;75.29
13974;BME280;7060;43.770;4.008;2024-01-30T02:45:22;102846.66;;;9.99;74.92
13974;BME280;7060;43.770;4.008;2024-01-30T02:47:50;102846.59;;;10.00;75.33
13974;BME280;7060;43.770;4.008;2024-01-30T02:50:19;102844.16;;;9.96;74.83
13974;BME280;7060;43.770;4.008;2024-01-30T02:52:47;102839.50;;;9.83;74.78
13974;BME280;7060;43.770;4.008;2024-01-30T02:55:17;102823.63;;;9.65;75.02
13974;BME280;7060;43.770;4.008;2024-01-30T02:57:45;102838.03;;;9.78;75.44
13974;BME280;7060;43.770;4.008;2024-01-30T03:00:14;102836.31;;;9.77;74.86
13974;BME280;7060;43.770;4.008;2024-01-30T03:02:42;102831.22;;;9.72;74.54
13974;BME280;7060;43.770;4.008;2024-01-30T03:05:10;102837.75;;;9.67;74.84
13974;BME280;7060;43.770;4.008;2024-01-30T03:07:37;102793.03;;;9.39;74.86
13974;BME280;7060;43.770;4.008;2024-01-30T03:10:06;102839.69;;;9.63;74.62
13974;BME280;7060;43.770;4.008;2024-01-30T03:12:36;102714.91;;;8.88;74.48
13974;BME280;7060;43.770;4.008;2024-01-30T03:15:04;102831.44;;;9.52;74.96
13974;BME280;7060;43.770;4.008;2024-01-30T03:17:32;102824.31;;;9.53;74.70
13974;BME280;7060;43.770;4.008;2024-01-30T03:20:00;102830.50;;;9.53;75.26
13974;BME280;7060;43.770;4.008;2024-01-30T03:22:30;102834.63;;;9.59;75.56
13974;BME280;7060;43.770;4.008;2024-01-30T03:24:58;102839.88;;;9.60;75.27
13974;BME280;7060;43.770;4.008;2024-01-30T03:27:26;102837.38;;;9.57;74.29
13974;BME280;7060;43.770;4.008;2024-01-30T03:29:56;102837.63;;;9.53;74.25
13974;BME280;7060;43.770;4.008;2024-01-30T03:32:25;102837.31;;;9.41;73.98
13974;BME280;7060;43.770;4.008;2024-01-30T03:34:53;102841.16;;;9.36;74.69
13974;BME280;7060;43.770;4.008;2024-01-30T03:37:21;102842.34;;;9.30;74.92
13974;BME280;7060;43.770;4.008;2024-01-30T03:39:50;102838.91;;;9.28;75.09
13974;BME280;7060;43.770;4.008;2024-01-30T03:42:18;102839.78;;;9.29;74.58
13974;BME280;7060;43.770;4.008;2024-01-30T03:44:46;102843.03;;;9.34;74.52
13974;BME280;7060;43.770;4.008;2024-01-30T03:47:16;102847.19;;;9.39;74.38
13974;BME280;7060;43.770;4.008;2024-01-30T03:49:44;102841.94;;;9.38;74.27
13974;BME280;7060;43.770;4.008;2024-01-30T03:52:12;102842.03;;;9.36;74.61
13974;BME280;7060;43.770;4.008;2024-01-30T03:54:40;102846.50;;;9.36;74.25
13974;BME280;7060;43.770;4.008;2024-01-30T03:57:08;102848.28;;;9.35;74.64
13974;BME280;7060;43.770;4.008;2024-01-30T03:59:36;102858.09;;;9.35;74.11
13974;BME280;7060;43.770;4.008;2024-01-30T04:02:05;102849.59;;;9.28;74.46
13974;BME280;7060;43.770;4.008;2024-01-30T04:04:34;102848.16;;;9.21;74.66
13974;BME280;7060;43.770;4.008;2024-01-30T04:07:03;102844.09;;;9.14;74.19
13974;BME280;7060;43.770;4.008;2024-01-30T04:09:32;102846.91;;;9.11;75.22
13974;BME280;7060;43.770;4.008;2024-01-30T04:12:00;102840.72;;;9.10;74.86
13974;BME280;7060;43.770;4.008;2024-01-30T04:14:29;102849.66;;;9.09;74.99
13974;BME280;7060;43.770;4.008;2024-01-30T04:16:57;102843.59;;;9.06;74.37
13974;BME280;7060;43.770;4.008;2024-01-30T04:19:26;102849.09;;;9.03;75.31
13974;BME280;7060;43.770;4.008;2024-01-30T04:21:55;102854.34;;;9.04;74.57
13974;BME280;7060;43.770;4.008;2024-01-30T04:24:24;102848.16;;;9.04;74.50
13974;BME280;7060;43.770;4.008;2024-01-30T04:26:52;102854.59;;;9.00;75.05
13974;BME280;7060;43.770;4.008;2024-01-30T04:29:20;102861.88;;;8.96;75.04
13974;BME280;7060;43.770;4.008;2024-01-30T04:31:49;102855.75;;;8.94;74.66
13974;BME280;7060;43.770;4.008;2024-01-30T04:34:17;102859.06;;;8.99;74.98
13974;BME280;7060;43.770;4.008;2024-01-30T04:36:45;102857.09;;;9.03;74.67
13974;BME280;7060;43.770;4.008;2024-01-30T04:39:15;102863.13;;;9.06;74.60
13974;BME280;7060;43.770;4.008;2024-01-30T04:41:43;102855.28;;;9.03;74.43
13974;BME280;7060;43.770;4.008;2024-01-30T04:44:11;102838.91;;;8.94;74.59
13974;BME280;7060;43.770;4.008;2024-01-30T04:46:39;102851.22;;;8.96;74.30
13974;BME280;7060;43.770;4.008;2024-01-30T04:49:07;102849.72;;;8.91;74.98
13974;BME280;7060;43.770;4.008;2024-01-30T04:51:35;102850.59;;;8.91;75.31
13974;BME280;7060;43.770;4.008;2024-01-30T04:54:04;102864.69;;;8.93;75.01
13974;BME280;7060;43.770;4.008;2024-01-30T04:56:33;102858.72;;;8.88;74.89
13974;BME280;7060;43.770;4.008;2024-01-30T04:59:02;102864.13;;;8.87;75.11
13974;BME280;7060;43.770;4.008;2024-01-30T05:01:30;102863.41;;;8.83;74.68
13974;BME280;7060;43.770;4.008;2024-01-30T05:03:59;102854.78;;;8.78;75.08
13974;BME280;7060;43.770;4.008;2024-01-30T05:06:28;102857.00;;;8.87;75.22
13974;BME280;7060;43.770;4.008;2024-01-30T05:08:56;102850.88;;;8.85;75.10
13974;BME280;7060;43.770;4.008;2024-01-30T05:11:24;102864.69;;;8.93;75.51
13974;BME280;7060;43.770;4.008;2024-01-30T05:13:54;102857.56;;;8.94;75.04
13974;BME280;7060;43.770;4.008;2024-01-30T05:16:22;102868.28;;;8.92;75.22
13974;BME280;7060;43.770;4.008;2024-01-30T05:18:50;102873.69;;;8.91;75.32
13974;BME280;7060;43.770;4.008;2024-01-30T05:21:19;102873.78;;;8.89;74.51
13974;BME280;7060;43.770;4.008;2024-01-30T05:23:47;102871.97;;;8.90;75.10
13974;BME280;7060;43.770;4.008;2024-01-30T05:26:15;102877.38;;;8.88;74.88
13974;BME280;7060;43.770;4.008;2024-01-30T05:28:43;102879.41;;;8.83;75.35
13974;BME280;7060;43.770;4.008;2024-01-30T05:31:13;102873.28;;;8.81;74.29
13974;BME280;7060;43.770;4.008;2024-01-30T05:33:41;102877.97;;;8.76;75.03
13974;BME280;7060;43.770;4.008;2024-01-30T05:36:11;102881.59;;;8.75;74.92
13974;BME280;7060;43.770;4.008;2024-01-30T05:38:39;102878.28;;;8.70;74.94
13974;BME280;7060;43.770;4.008;2024-01-30T05:41:08;102873.97;;;8.67;75.03
13974;BME280;7060;43.770;4.008;2024-01-30T05:43:36;102883.63;;;8.70;74.66
13974;BME280;7060;43.770;4.008;2024-01-30T05:46:04;102879.09;;;8.72;75.13
13974;BME280;7060;43.770;4.008;2024-01-30T05:48:33;102889.66;;;8.73;75.56
13974;BME280;7060;43.770;4.008;2024-01-30T05:51:02;102890.53;;;8.74;74.47
13974;BME280;7060;43.770;4.008;2024-01-30T05:53:31;102838.78;;;8.43;74.82
13974;BME280;7060;43.770;4.008;2024-01-30T05:55:59;102889.31;;;8.79;75.04
13974;BME280;7060;43.770;4.008;2024-01-30T05:58:27;102894.66;;;8.79;75.50
13974;BME280;7060;43.770;4.008;2024-01-30T06:00:55;102891.91;;;8.81;74.88
13974;BME280;7060;43.770;4.008;2024-01-30T06:03:25;102886.75;;;8.78;75.55
13974;BME280;7060;43.770;4.008;2024-01-30T06:05:54;102876.56;;;8.69;74.95
13974;BME280;7060;43.770;4.008;2024-01-30T06:08:22;102880.94;;;8.70;75.14
13974;BME280;7060;43.770;4.008;2024-01-30T06:10:50;102873.91;;;8.69;75.33
13974;BME280;7060;43.770;4.008;2024-01-30T06:13:20;102898.41;;;8.75;75.28
13974;BME280;7060;43.770;4.008;2024-01-30T06:15:48;102903.56;;;8.78;75.42
13974;BME280;7060;43.770;4.008;2024-01-30T06:18:16;102874.91;;;8.66;75.77
13974;BME280;7060;43.770;4.008;2024-01-30T06:20:44;102901.78;;;8.79;75.47
13974;BME280;7060;43.770;4.008;2024-01-30T06:23:14;102899.19;;;8.77;74.82
13974;BME280;7060;43.770;4.008;2024-01-30T06:25:42;102880.44;;;8.62;75.54
13974;BME280;7060;43.770;4.008;2024-01-30T06:28:10;102878.88;;;8.58;75.68
13974;BME280;7060;43.770;4.008;2024-01-30T06:30:38;102906.50;;;8.74;76.24
13974;BME280;7060;43.770;4.008;2024-01-30T06:33:06;102900.22;;;8.75;75.61
13974;BME280;7060;43.770;4.008;2024-01-30T06:35:34;102896.94;;;8.70;75.07
13974;BME280;7060;43.770;4.008;2024-01-30T06:38:10;102909.31;;;8.71;74.71
13974;BME280;7060;43.770;4.008;2024-01-30T06:40:40;102911.97;;;8.71;75.05
13974;BME280;7060;43.770;4.008;2024-01-30T06:43:08;102910.31;;;8.68;75.45
13974;BME280;7060;43.770;4.008;2024-01-30T06:45:36;102921.03;;;8.67;75.35
13974;BME280;7060;43.770;4.008;2024-01-30T06:48:05;102907.88;;;8.64;75.67
13974;BME280;7060;43.770;4.008;2024-01-30T06:50:33;102911.47;;;8.63;75.53
13974;BME280;7060;43.770;4.008;2024-01-30T06:53:01;102909.66;;;8.63;75.15
13974;BME280;7060;43.770;4.008;2024-01-30T06:55:29;102907.94;;;8.62;74.25
13974;BME280;7060;43.770;4.008;2024-01-30T06:57:59;102905.50;;;8.58;74.82
13974;BME280;7060;43.770;4.008;2024-01-30T07:00:27;102909.69;;;8.44;74.44
13974;BME280;7060;43.770;4.008;2024-01-30T07:02:55;102908.25;;;8.37;74.92
13974;BME280;7060;43.770;4.008;2024-01-30T07:05:23;102922.88;;;8.27;74.18
13974;BME280;7060;43.770;4.008;2024-01-30T07:07:51;102905.56;;;8.19;74.34
13974;BME280;7060;43.770;4.008;2024-01-30T07:10:20;102912.81;;;8.15;74.74
13974;BME280;7060;43.770;4.008;2024-01-30T07:12:48;102901.72;;;8.05;75.04
13974;BME280;7060;43.770;4.008;2024-01-30T07:15:17;102926.78;;;8.20;74.50
13974;BME280;7060;43.770;4.008;2024-01-30T07:17:50;102930.44;;;8.18;74.19
13974;BME280;7060;43.770;4.008;2024-01-30T07:20:18;102933.31;;;8.13;74.45
13974;BME280;7060;43.770;4.008;2024-01-30T07:22:50;102936.69;;;8.17;74.34
13974;BME280;7060;43.770;4.008;2024-01-30T07:25:18;102945.00;;;8.09;74.13
13974;BME280;7060;43.770;4.008;2024-01-30T07:27:48;102945.28;;;8.03;74.49
13974;BME280;7060;43.770;4.008;2024-01-30T07:30:18;102941.69;;;8.04;74.37
13974;BME280;7060;43.770;4.008;2024-01-30T07:32:47;102936.06;;;7.91;74.06
13974;BME280;7060;43.770;4.008;2024-01-30T07:35:15;102955.13;;;8.01;74.64
13974;BME280;7060;43.770;4.008;2024-01-30T07:37:43;102956.66;;;8.06;73.93
13974;BME280;7060;43.770;4.008;2024-01-30T07:40:11;102962.69;;;8.10;73.54
13974;BME280;7060;43.770;4.008;2024-01-30T07:42:39;102963.56;;;8.10;74.05
13974;BME280;7060;43.770;4.008;2024-01-30T07:45:09;102968.88;;;8.10;74.28
13974;BME280;7060;43.770;4.008;2024-01-30T07:47:39;102970.16;;;8.21;73.64
13974;BME280;7060;43.770;4.008;2024-01-30T07:50:08;102947.19;;;8.20;74.11
13974;BME280;7060;43.770;4.008;2024-01-30T07:52:36;102963.50;;;8.31;73.72
13974;BME280;7060;43.770;4.008;2024-01-30T07:58:21;102978.16;;;8.21;73.52
13974;BME280;7060;43.770;4.008;2024-01-30T08:00:50;102983.56;;;8.19;73.96
13974;BME280;7060;43.770;4.008;2024-01-30T08:03:21;102983.41;;;8.22;73.08
13974;BME280;7060;43.770;4.008;2024-01-30T08:05:49;102984.44;;;8.20;73.62
13974;BME280;7060;43.770;4.008;2024-01-30T08:08:17;102985.31;;;8.20;73.59
13974;BME280;7060;43.770;4.008;2024-01-30T08:10:45;102985.88;;;8.27;73.88
13974;BME280;7060;43.770;4.008;2024-01-30T08:13:13;102985.66;;;8.31;73.64
13974;BME280;7060;43.770;4.008;2024-01-30T08:15:41;102985.56;;;8.34;74.25
13974;BME280;7060;43.770;4.008;2024-01-30T08:18:09;102867.47;;;7.79;73.33
13974;BME280;7060;43.770;4.008;2024-01-30T08:20:39;102978.53;;;8.71;73.86
13974;BME280;7060;43.770;4.008;2024-01-30T08:23:07;102959.56;;;8.77;74.14
13974;BME280;7060;43.770;4.008;2024-01-30T08:25:35;102983.78;;;9.08;74.35
13974;BME280;7060;43.770;4.008;2024-01-30T08:28:04;102984.22;;;9.35;73.89
13974;BME280;7060;43.770;4.008;2024-01-30T08:30:34;102980.25;;;9.61;73.11
13974;BME280;7060;43.770;4.008;2024-01-30T08:33:02;102976.56;;;9.81;73.34
13974;BME280;7060;43.770;4.008;2024-01-30T08:35:30;102975.19;;;10.07;73.49
13974;BME280;7060;43.770;4.008;2024-01-30T08:38:02;102978.31;;;10.32;73.46
13974;BME280;7060;43.770;4.008;2024-01-30T08:40:30;102976.59;;;10.47;73.20
13974;BME280;7060;43.770;4.008;2024-01-30T08:42:58;102950.25;;;10.57;72.67
13974;BME280;7060;43.770;4.008;2024-01-30T08:45:26;102978.31;;;10.95;73.03
13974;BME280;7060;43.770;4.008;2024-01-30T08:47:54;102953.16;;;10.99;72.65
13974;BME280;7060;43.770;4.008;2024-01-30T08:50:22;102972.41;;;11.36;72.50
13974;BME280;7060;43.770;4.008;2024-01-30T08:52:50;102984.69;;;11.54;72.38
13974;BME280;7060;43.770;4.008;2024-01-30T08:55:22;102989.72;;;11.74;71.85
13974;BME280;7060;43.770;4.008;2024-01-30T08:57:51;102989.50;;;11.93;71.64
13974;BME280;7060;43.770;4.008;2024-01-30T09:00:20;102985.78;;;12.10;71.21
13974;BME280;7060;43.770;4.008;2024-01-30T09:02:48;102980.53;;;12.23;70.45
13974;BME280;7060;43.770;4.008;2024-01-30T09:05:16;102985.81;;;12.24;69.51
13974;BME280;7060;43.770;4.008;2024-01-30T09:07:44;102993.75;;;12.26;69.11
13974;BME280;7060;43.770;4.008;2024-01-30T09:10:13;102994.50;;;12.28;69.08
13974;BME280;7060;43.770;4.008;2024-01-30T09:12:46;102993.25;;;12.33;68.46
13974;BME280;7060;43.770;4.008;2024-01-30T09:15:14;102996.88;;;12.32;67.42
13974;BME280;7060;43.770;4.008;2024-01-30T09:17:43;102995.63;;;12.38;66.66
13974;BME280;7060;43.770;4.008;2024-01-30T09:20:11;102969.66;;;12.26;65.40
13974;BME280;7060;43.770;4.008;2024-01-30T09:22:39;102916.38;;;11.93;64.56
13974;BME280;7060;43.770;4.008;2024-01-30T09:25:08;102997.97;;;12.30;64.34
13974;BME280;7060;43.770;4.008;2024-01-30T09:27:36;102993.34;;;12.32;63.67
13974;BME280;7060;43.770;4.008;2024-01-30T09:30:07;102995.94;;;12.33;63.38
13974;BME280;7060;43.770;4.008;2024-01-30T09:32:35;103002.25;;;12.32;63.89
13974;BME280;7060;43.770;4.008;2024-01-30T09:35:04;102999.84;;;12.42;64.05
13974;BME280;7060;43.770;4.008;2024-01-30T09:37:33;103000.63;;;12.44;63.86
13974;BME280;7060;43.770;4.008;2024-01-30T09:40:01;102997.09;;;12.43;63.46
13974;BME280;7060;43.770;4.008;2024-01-30T09:42:33;102977.84;;;12.37;63.65
13974;BME280;7060;43.770;4.008;2024-01-30T09:45:03;102954.25;;;12.29;63.48
13974;BME280;7060;43.770;4.008;2024-01-30T09:47:40;102994.00;;;12.64;63.76
13974;BME280;7060;43.770;4.008;2024-01-30T09:50:09;102887.78;;;12.07;63.00
13974;BME280;7060;43.770;4.008;2024-01-30T09:52:38;102990.25;;;12.66;62.50
13974;BME280;7060;43.770;4.008;2024-01-30T09:55:07;102987.59;;;12.66;62.71
13974;BME280;7060;43.770;4.008;2024-01-30T09:57:36;102988.06;;;12.73;62.90
13974;BME280;7060;43.770;4.008;2024-01-30T10:00:05;102981.63;;;12.75;63.34
13974;BME280;7060;43.770;4.008;2024-01-30T10:02:40;102984.72;;;12.69;63.49
13974;BME280;7060;43.770;4.008;2024-01-30T10:05:09;103000.69;;;12.85;62.70
13974;BME280;7060;43.770;4.008;2024-01-30T10:07:37;102998.72;;;12.87;63.00
13974;BME280;7060;43.770;4.008;2024-01-30T10:10:06;102990.09;;;12.96;63.31
13974;BME280;7060;43.770;4.008;2024-01-30T10:12:34;102998.13;;;13.10;63.50
13974;BME280;7060;43.770;4.008;2024-01-30T10:15:02;103011.78;;;13.20;63.14
13974;BME280;7060;43.770;4.008;2024-01-30T10:17:31;103007.66;;;13.14;62.31
13974;BME280;7060;43.770;4.008;2024-01-30T10:20:04;103017.47;;;13.15;61.93
13974;BME280;7060;43.770;4.008;2024-01-30T10:22:32;102998.22;;;13.09;62.29
13974;BME280;7060;43.770;4.008;2024-01-30T10:25:00;102998.13;;;13.10;62.78
13974;BME280;7060;43.770;4.008;2024-01-30T10:27:32;102996.56;;;13.20;62.61
13974;BME280;7060;43.770;4.008;2024-01-30T10:30:00;102998.34;;;13.34;62.89
13974;BME280;7060;43.770;4.008;2024-01-30T10:32:31;102991.84;;;13.51;62.63
13974;BME280;7060;43.770;4.008;2024-01-30T10:34:59;102973.81;;;13.53;61.84
13974;BME280;7060;43.770;4.008;2024-01-30T10:37:30;102908.06;;;13.20;61.66
13974;BME280;7060;43.770;4.008;2024-01-30T10:40:02;102987.47;;;13.75;61.68
13974;BME280;7060;43.770;4.008;2024-01-30T10:42:32;102975.38;;;13.82;61.39
13974;BME280;7060;43.770;4.008;2024-01-30T10:45:06;102981.28;;;13.87;61.59
13974;BME280;7060;43.770;4.008;2024-01-30T10:47:36;102974.28;;;13.98;62.22
13974;BME280;7060;43.770;4.008;2024-01-30T10:50:05;102922.41;;;13.72;60.59
13974;BME280;7060;43.770;4.008;2024-01-30T10:52:37;102946.69;;;13.83;60.86
13974;BME280;7060;43.770;4.008;2024-01-30T10:55:07;102968.59;;;14.02;60.95
13974;BME280;7060;43.770;4.008;2024-01-30T10:57:36;102974.09;;;14.13;61.61
13974;BME280;7060;43.770;4.008;2024-01-30T11:00:07;102952.28;;;14.18;61.52
13974;BME280;7060;43.770;4.008;2024-01-30T11:02:38;102965.13;;;14.38;59.95
13974;BME280;7060;43.770;4.008;2024-01-30T11:05:08;102960.94;;;14.34;59.79
13974;BME280;7060;43.770;4.008;2024-01-30T11:07:39;102950.19;;;14.34;59.99
13974;BME280;7060;43.770;4.008;2024-01-30T11:10:08;102949.78;;;14.28;60.16
13974;BME280;7060;43.770;4.008;2024-01-30T11:12:40;102947.53;;;14.34;60.48
13974;BME280;7060;43.770;4.008;2024-01-30T11:15:12;102927.22;;;14.30;60.81
13974;BME280;7060;43.770;4.008;2024-01-30T11:17:47;102955.50;;;14.48;60.13
13974;BME280;7060;43.770;4.008;2024-01-30T11:20:20;102946.09;;;14.54;60.81
13974;BME280;7060;43.770;4.008;2024-01-30T11:22:51;102942.97;;;14.60;60.20
13974;BME280;7060;43.770;4.008;2024-01-30T11:25:21;102928.03;;;14.56;60.62
13974;BME280;7060;43.770;4.008;2024-01-30T11:27:51;102952.50;;;14.77;60.16
13974;BME280;7060;43.770;4.008;2024-01-30T11:30:23;102928.97;;;14.68;59.74
13974;BME280;7060;43.770;4.008;2024-01-30T11:33:02;102951.19;;;14.82;59.68
13974;BME280;7060;43.770;4.008;2024-01-30T11:35:34;102945.06;;;14.80;59.60
13974;BME280;7060;43.770;4.008;2024-01-30T11:38:05;102940.66;;;14.79;59.48
13974;BME280;7060;43.770;4.008;2024-01-30T11:40:34;102936.38;;;14.77;59.48
13974;BME280;7060;43.770;4.008;2024-01-30T11:43:04;102909.75;;;14.61;59.79
13974;BME280;7060;43.770;4.008;2024-01-30T11:45:33;102934.53;;;14.77;59.68
13974;BME280;7060;43.770;4.008;2024-01-30T11:48:02;102933.81;;;14.75;59.41
13974;BME280;7060;43.770;4.008;2024-01-30T11:50:33;102933.38;;;14.69;59.64
13974;BME280;7060;43.770;4.008;2024-01-30T11:53:05;102931.44;;;14.71;59.83
13974;BME280;7060;43.770;4.008;2024-01-30T11:55:34;102927.91;;;14.70;60.04
13974;BME280;7060;43.770;4.008;2024-01-30T11:58:04;102912.22;;;14.64;59.59
13974;BME280;7060;43.770;4.008;2024-01-30T12:00:32;102922.41;;;14.72;59.53
13974;BME280;7060;43.770;4.008;2024-01-30T12:03:03;102920.38;;;14.75;59.83
13974;BME280;7060;43.770;4.008;2024-01-30T12:05:33;102914.13;;;14.75;59.55
13974;BME280;7060;43.770;4.008;2024-01-30T12:08:01;102911.56;;;14.73;59.42
13974;BME280;7060;43.770;4.008;2024-01-30T12:10:31;102914.13;;;14.75;59.03
13974;BME280;7060;43.770;4.008;2024-01-30T12:13:00;102908.75;;;14.75;59.57
13974;BME280;7060;43.770;4.008;2024-01-30T12:15:29;102909.59;;;14.75;59.57
13974;BME280;7060;43.770;4.008;2024-01-30T12:18:04;102894.56;;;14.73;59.16
13974;BME280;7060;43.770;4.008;2024-01-30T12:20:33;102896.16;;;14.75;58.98
13974;BME280;7060;43.770;4.008;2024-01-30T12:23:01;102897.75;;;14.78;59.55
13974;BME280;7060;43.770;4.008;2024-01-30T12:25:31;102890.94;;;14.85;59.33
13974;BME280;7060;43.770;4.008;2024-01-30T12:27:59;102893.63;;;14.85;58.89
13974;BME280;7060;43.770;4.008;2024-01-30T12:30:27;102888.03;;;14.88;59.03
13974;BME280;7060;43.770;4.008;2024-01-30T12:32:56;102889.97;;;14.86;58.96
13974;BME280;7060;43.770;4.008;2024-01-30T12:35:25;102895.13;;;14.89;58.87
13974;BME280;7060;43.770;4.008;2024-01-30T12:37:57;102888.25;;;14.85;58.74
13974;BME280;7060;43.770;4.008;2024-01-30T12:40:26;102858.53;;;14.75;59.13
13974;BME280;7060;43.770;4.008;2024-01-30T12:42:56;102869.88;;;14.79;59.22
13974;BME280;7060;43.770;4.008;2024-01-30T12:45:25;102775.91;;;14.30;59.23
13974;BME280;7060;43.770;4.008;2024-01-30T12:47:54;102874.59;;;14.88;59.10
13974;BME280;7060;43.770;4.008;2024-01-30T12:50:22;102875.56;;;14.87;59.14
13974;BME280;7060;43.770;4.008;2024-01-30T12:52:50;102867.59;;;14.85;59.54
13974;BME280;7060;43.770;4.008;2024-01-30T12:55:20;102866.41;;;14.89;59.40
13974;BME280;7060;43.770;4.008;2024-01-30T12:57:48;102824.38;;;14.65;59.13
13974;BME280;7060;43.770;4.008;2024-01-30T13:00:19;102850.59;;;14.85;59.26
13974;BME280;7060;43.770;4.008;2024-01-30T13:02:47;102857.03;;;14.95;59.33
13974;BME280;7060;43.770;4.008;2024-01-30T13:05:15;102857.25;;;14.92;59.18
13974;BME280;7060;43.770;4.008;2024-01-30T13:07:44;102864.34;;;14.93;59.17
13974;BME280;7060;43.770;4.008;2024-01-30T13:10:12;102858.09;;;14.93;59.14
13974;BME280;7060;43.770;4.008;2024-01-30T13:12:40;102858.97;;;14.93;59.18
13974;BME280;7060;43.770;4.008;2024-01-30T13:15:09;102833.84;;;14.81;59.45
13974;BME280;7060;43.770;4.008;2024-01-30T13:17:39;102859.72;;;14.95;59.31